Houston, Texas
Traffic Map
Current Weather Conditions
Houston, Texas
Clear
Clear
18°
Feels Like: 18°
Wind Chill: 18° Ceiling: Unl
Heat Index: 18° Visibility: 10mi
Dew Point: 13° Wind: 0mph
Humidity: 73% Direction: ° ()
Pressure: 30.04in Gusts: 0mph
Raw Report DataKMCJ 230915Z AUTO 00000KT 10SM CLR 18/13 A3004 RMK AO1
Traffic Incident Summary
Active as of:
Severity:
Category:
InformationThere was an issue retrieving the traffic information for this location. Please try a different location or try again shortly.
Advertisements
Track Severe Weather on mobile